Time;durP1;ratioP1;P1;durP2;ratioP2;P2;SDS_P1;SDS_P2;PMS_P1;PMS_P2;Temp;Humidity;BMP_temperature;BMP_pressure;BME280_temperature;BME280_humidity;BME280_pressure;Samples;Min_cycle;Max_cycle;Signal;HPM_P1;HPM_P2
2024/03/13 00:01:51;;;;;;;7.00;5.70;;;7.50;99.90;7.40;100587.00;;;;4883687;28;87982;-64
2024/03/13 00:04:17;;;;;;;9.07;6.03;;;7.50;99.90;7.40;100589.00;;;;4877471;28;88946;-64
2024/03/13 00:06:44;;;;;;;10.53;7.80;;;7.60;99.90;7.40;100595.00;;;;4879925;28;87469;-66
2024/03/13 00:09:10;;;;;;;7.10;5.27;;;7.50;99.90;7.40;100596.00;;;;4876635;28;88132;-66
2024/03/13 00:11:36;;;;;;;7.20;5.07;;;7.90;99.90;7.40;100595.00;;;;4883596;28;88723;-65
2024/03/13 00:14:02;;;;;;;7.77;6.37;;;7.60;99.90;7.40;100597.00;;;;4880119;28;89206;-64
2024/03/13 00:16:31;;;;;;;10.57;6.63;;;7.90;99.90;7.40;100589.00;;;;4880535;28;87739;-65
2024/03/13 00:18:58;;;;;;;13.17;6.50;;;7.60;99.90;7.50;100601.00;;;;4881359;28;90856;-65
2024/03/13 00:21:26;;;;;;;8.40;6.90;;;7.60;99.90;7.50;100595.00;;;;4880477;28;88779;-65
2024/03/13 00:23:52;;;;;;;8.73;6.80;;;7.60;99.90;7.50;100597.00;;;;4885658;28;88144;-64
2024/03/13 00:26:21;;;;;;;17.37;6.33;;;7.60;99.90;7.60;100591.00;;;;4880643;28;87848;-65
2024/03/13 00:28:50;;;;;;;12.70;6.93;;;7.70;99.90;7.50;100594.00;;;;4879511;28;89412;-65
2024/03/13 00:31:16;;;;;;;11.27;7.00;;;7.70;99.90;7.60;100595.00;;;;4880222;28;87801;-65
2024/03/13 00:33:41;;;;;;;12.80;7.57;;;7.70;99.90;7.60;100581.00;;;;4880348;28;88045;-65
2024/03/13 00:36:10;;;;;;;9.20;6.90;;;7.70;99.90;7.60;100593.00;;;;4879145;28;104866;-65
2024/03/13 00:38:36;;;;;;;9.13;6.10;;;7.90;99.90;7.60;100583.00;;;;4877953;28;119345;-65
2024/03/13 00:41:02;;;;;;;11.23;5.27;;;7.70;99.90;7.60;100591.00;;;;4881242;28;88915;-65
2024/03/13 00:43:27;;;;;;;12.83;6.63;;;7.70;99.90;7.60;100589.00;;;;4876201;28;111064;-65
2024/03/13 00:45:54;;;;;;;12.27;6.47;;;7.70;99.90;7.70;100581.00;;;;4880678;28;87998;-65
2024/03/13 00:48:20;;;;;;;9.00;6.00;;;7.70;99.90;7.60;100591.00;;;;4876956;28;116862;-65
2024/03/13 00:50:48;;;;;;;9.00;6.20;;;7.80;99.90;7.70;100592.00;;;;4880341;28;88215;-65
2024/03/13 00:53:14;;;;;;;8.67;6.40;;;7.80;99.90;7.70;100589.00;;;;4874713;28;87787;-65
2024/03/13 00:55:41;;;;;;;11.27;6.37;;;7.80;99.90;7.70;100586.00;;;;4878633;28;93234;-65
2024/03/13 00:58:08;;;;;;;12.50;7.03;;;7.80;99.90;7.70;100583.00;;;;4880131;28;107685;-65
2024/03/13 01:00:38;;;;;;;9.37;6.57;;;7.90;99.90;7.70;100590.00;;;;4878732;28;88024;-65
2024/03/13 01:03:05;;;;;;;9.33;7.07;;;7.90;99.90;7.80;100579.00;;;;4874657;28;89043;-65
2024/03/13 01:05:31;;;;;;;9.60;6.83;;;7.90;99.90;7.80;100579.00;;;;4877807;28;87929;-64
2024/03/13 01:07:57;;;;;;;10.57;7.87;;;7.90;99.90;7.80;100579.00;;;;4884061;28;88853;-65
2024/03/13 01:10:27;;;;;;;10.60;7.30;;;7.90;99.90;7.80;100580.00;;;;4880750;28;88647;-65
2024/03/13 01:12:53;;;;;;;8.00;6.13;;;7.90;99.90;7.80;100579.00;;;;4879439;28;87856;-65
2024/03/13 01:15:20;;;;;;;7.50;5.27;;;7.90;99.90;7.80;100579.00;;;;4881856;28;88040;-65
2024/03/13 01:17:47;;;;;;;7.33;5.93;;;8.30;99.90;7.80;100575.00;;;;4874346;28;88967;-65
2024/03/13 01:20:18;;;;;;;9.63;6.27;;;7.90;99.90;7.80;100576.00;;;;4877290;28;88008;-65
2024/03/13 01:22:47;;;;;;;11.43;6.73;;;7.90;99.90;7.80;100577.00;;;;4880241;28;88022;-65
2024/03/13 01:25:14;;;;;;;14.20;6.87;;;8.40;99.90;7.80;100580.00;;;;4881443;28;87862;-65
2024/03/13 01:27:43;;;;;;;10.73;5.60;;;7.90;99.90;7.80;100574.00;;;;4876011;28;90097;-64
2024/03/13 01:30:10;;;;;;;10.83;7.53;;;7.90;99.90;7.80;100568.00;;;;4877171;28;89785;-64
2024/03/13 01:32:35;;;;;;;8.17;5.87;;;7.90;99.90;7.90;100576.00;;;;4877023;28;92356;-65
2024/03/13 01:35:01;;;;;;;11.30;7.53;;;8.00;99.90;7.90;100573.00;;;;4877457;28;89348;-65
2024/03/13 01:40:18;;;;;;;6.67;5.33;;;8.00;99.90;7.90;100582.00;;;;4876225;28;88110;-65
2024/03/13 01:56:59;;;;;;;8.53;6.13;;;7.90;99.90;7.70;100577.00;;;;4876657;28;87846;-65
2024/03/13 01:59:48;;;;;;;7.33;5.87;;;7.90;99.90;7.70;100571.00;;;;4878723;28;88181;-64
2024/03/13 02:02:22;;;;;;;11.83;7.00;;;7.90;99.90;7.70;100575.00;;;;4878043;28;88412;-64
2024/03/13 02:04:50;;;;;;;9.13;6.40;;;7.90;99.90;7.60;100579.00;;;;4880209;28;87989;-64
2024/03/13 02:07:22;;;;;;;12.37;6.60;;;7.80;99.90;7.60;100576.00;;;;4877277;28;89530;-64
2024/03/13 02:09:50;;;;;;;9.83;6.37;;;7.80;99.90;7.50;100568.00;;;;4868546;28;105967;-64
2024/03/13 02:12:16;;;;;;;9.67;5.73;;;7.70;99.90;7.50;100576.00;;;;4877003;28;109459;-64
2024/03/13 02:14:42;;;;;;;9.53;5.50;;;7.70;99.90;7.40;100577.00;;;;4882157;28;102583;-64
2024/03/13 02:17:09;;;;;;;10.87;6.20;;;7.60;99.90;7.40;100577.00;;;;4878076;28;88300;-64
2024/03/13 02:19:39;;;;;;;6.83;5.87;;;7.50;99.90;7.30;100576.00;;;;4874961;28;108740;-64
2024/03/13 02:22:09;;;;;;;10.90;7.23;;;7.60;99.90;7.30;100575.00;;;;4878619;28;98569;-64
2024/03/13 02:24:35;;;;;;;10.27;5.77;;;8.10;99.90;7.20;100587.00;;;;4877995;28;87889;-64
2024/03/13 02:27:08;;;;;;;12.07;6.40;;;7.40;99.90;7.20;100576.00;;;;4878715;28;109125;-64
2024/03/13 02:29:33;;;;;;;11.50;6.60;;;7.40;99.90;7.20;100578.00;;;;4876181;28;100849;-64
2024/03/13 02:32:00;;;;;;;7.83;5.33;;;7.30;99.90;7.10;100589.00;;;;4878480;28;118027;-64
2024/03/13 02:34:26;;;;;;;8.27;5.67;;;7.30;99.90;7.10;100586.00;;;;4874167;28;87793;-65
2024/03/13 02:36:54;;;;;;;8.37;5.90;;;7.30;99.90;7.10;100575.00;;;;4876760;28;87180;-66
2024/03/13 02:39:20;;;;;;;9.13;5.57;;;7.40;99.90;7.10;100578.00;;;;4880161;28;88862;-64
2024/03/13 02:41:46;;;;;;;9.43;6.33;;;7.30;99.90;7.10;100571.00;;;;4878796;28;117005;-64
2024/03/13 02:44:12;;;;;;;7.63;6.03;;;7.30;99.90;7.10;100581.00;;;;4875544;28;111454;-64
2024/03/13 02:46:37;;;;;;;6.43;5.20;;;7.30;99.90;7.10;100574.00;;;;4877916;28;109494;-65
2024/03/13 02:49:04;;;;;;;8.33;5.57;;;7.80;99.90;7.10;100570.00;;;;4880577;28;88074;-64
2024/03/13 02:51:30;;;;;;;7.17;5.67;;;7.30;99.90;7.10;100568.00;;;;4882774;28;87897;-64
2024/03/13 02:53:56;;;;;;;6.50;5.60;;;7.60;99.90;7.10;100572.00;;;;4879435;28;88578;-64
2024/03/13 02:56:21;;;;;;;7.57;4.73;;;7.20;99.90;7.10;100577.00;;;;4876180;28;99979;-65
2024/03/13 02:58:48;;;;;;;10.10;5.73;;;7.20;99.90;7.10;100577.00;;;;4879862;28;107391;-64
2024/03/13 03:01:14;;;;;;;8.03;6.40;;;7.20;99.90;7.10;100565.00;;;;4877156;28;87291;-64
2024/03/13 03:03:40;;;;;;;12.40;6.80;;;7.20;99.90;7.10;100566.00;;;;4879988;28;103183;-64
2024/03/13 03:06:09;;;;;;;7.57;5.77;;;7.60;99.90;7.00;100569.00;;;;4874571;28;107715;-65
2024/03/13 03:08:37;;;;;;;6.40;5.63;;;7.20;99.90;7.00;100571.00;;;;4875951;28;103515;-64
2024/03/13 03:11:03;;;;;;;6.93;4.23;;;7.30;99.90;7.00;100556.00;;;;4880907;28;88490;-64
2024/03/13 03:13:33;;;;;;;10.13;6.27;;;7.20;99.90;7.00;100562.00;;;;4873640;28;88296;-64
2024/03/13 03:16:02;;;;;;;9.17;5.77;;;7.20;99.90;7.00;100569.00;;;;4872287;28;109191;-64
2024/03/13 03:18:27;;;;;;;13.27;6.73;;;7.20;99.90;7.00;100562.00;;;;4878705;28;88893;-65
2024/03/13 03:20:53;;;;;;;6.43;4.93;;;7.60;99.90;7.00;100570.00;;;;4877034;28;105580;-64
2024/03/13 03:23:19;;;;;;;7.77;5.53;;;7.10;99.90;7.00;100561.00;;;;4877460;28;89433;-65
2024/03/13 03:25:45;;;;;;;10.10;5.97;;;7.40;99.90;7.00;100571.00;;;;4882544;28;95383;-64
2024/03/13 03:28:13;;;;;;;8.80;5.70;;;7.10;99.90;7.00;100564.00;;;;4880101;28;117845;-64
2024/03/13 03:30:43;;;;;;;7.87;5.70;;;7.10;99.90;6.90;100568.00;;;;4879571;28;88562;-64
2024/03/13 03:33:15;;;;;;;7.30;5.43;;;7.10;99.90;6.90;100561.00;;;;4878571;28;88649;-65
2024/03/13 03:35:42;;;;;;;10.20;5.53;;;7.00;99.90;6.90;100566.00;;;;4879402;28;89215;-64
2024/03/13 03:38:07;;;;;;;10.20;5.70;;;7.00;99.90;6.80;100568.00;;;;4880563;28;88653;-64
2024/03/13 03:40:33;;;;;;;7.53;5.77;;;7.00;99.90;6.80;100573.00;;;;4883177;28;87976;-64
2024/03/13 03:43:03;;;;;;;11.53;6.53;;;7.00;99.90;6.70;100559.00;;;;4881705;28;87616;-64
2024/03/13 03:45:29;;;;;;;8.40;6.43;;;6.90;99.90;6.70;100563.00;;;;4881901;28;87565;-64
2024/03/13 03:47:55;;;;;;;9.30;6.87;;;7.60;99.90;6.60;100557.00;;;;4883172;28;107072;-64
2024/03/13 03:50:21;;;;;;;8.63;6.43;;;6.70;99.90;6.50;100558.00;;;;4880141;28;100494;-64
2024/03/13 03:52:47;;;;;;;11.57;6.40;;;6.70;99.90;6.40;100563.00;;;;4878361;28;109208;-64
2024/03/13 03:55:17;;;;;;;7.33;5.23;;;7.30;99.90;6.40;100554.00;;;;4880564;28;87889;-64
2024/03/13 03:57:43;;;;;;;13.50;6.43;;;7.00;99.90;6.30;100552.00;;;;4883054;28;89172;-64
2024/03/13 04:00:11;;;;;;;7.83;4.73;;;6.70;99.90;6.30;100548.00;;;;4877020;28;91673;-64
2024/03/13 04:02:37;;;;;;;6.27;5.40;;;6.50;99.90;6.20;100556.00;;;;4881772;28;87665;-64
2024/03/13 04:05:06;;;;;;;10.20;5.40;;;6.40;99.90;6.20;100556.00;;;;4881689;28;88033;-64
2024/03/13 04:07:32;;;;;;;10.43;5.90;;;6.40;99.90;6.10;100549.00;;;;4879701;28;88715;-64
2024/03/13 04:09:58;;;;;;;10.57;7.20;;;6.30;99.90;6.10;100560.00;;;;4881683;28;87825;-64
2024/03/13 04:12:24;;;;;;;7.33;5.40;;;6.30;99.90;6.10;100562.00;;;;4876356;28;101447;-65
2024/03/13 04:14:50;;;;;;;10.67;5.60;;;7.10;99.90;6.10;100557.00;;;;4877540;28;107865;-64
2024/03/13 04:17:17;;;;;;;10.73;6.73;;;6.80;99.90;6.00;100571.00;;;;4877847;28;88547;-65
2024/03/13 04:19:43;;;;;;;8.37;6.57;;;6.60;99.90;6.00;100570.00;;;;4876116;28;89793;-65
2024/03/13 04:22:09;;;;;;;9.00;6.00;;;6.20;99.90;6.00;100560.00;;;;4879458;28;97444;-64
2024/03/13 04:24:35;;;;;;;3.93;3.53;;;6.20;99.90;5.90;100565.00;;;;4877985;28;88464;-64
2024/03/13 04:27:01;;;;;;;9.37;4.90;;;6.10;99.90;5.90;100564.00;;;;4883166;28;89322;-65
2024/03/13 04:29:27;;;;;;;9.67;5.63;;;6.10;99.90;5.80;100566.00;;;;4875480;28;109205;-64
2024/03/13 04:31:53;;;;;;;10.10;6.60;;;6.00;99.90;5.80;100571.00;;;;4879484;28;94342;-63
2024/03/13 04:34:18;;;;;;;13.93;6.60;;;6.60;99.90;5.70;100571.00;;;;4880938;28;88071;-64
2024/03/13 04:36:46;;;;;;;9.97;5.83;;;6.60;99.90;5.70;100570.00;;;;4880604;28;117370;-65
2024/03/13 04:39:11;;;;;;;8.80;5.50;;;6.60;99.90;5.60;100572.00;;;;4878095;28;88978;-65
2024/03/13 04:41:41;;;;;;;10.80;6.80;;;6.50;99.90;5.60;100579.00;;;;4881203;28;87856;-65
2024/03/13 04:44:10;;;;;;;8.97;5.67;;;5.70;99.90;5.50;100570.00;;;;4879805;28;87711;-65
2024/03/13 04:46:37;;;;;;;11.40;6.83;;;5.70;99.90;5.50;100572.00;;;;4879081;28;89586;-66
2024/03/13 04:49:05;;;;;;;7.73;5.43;;;5.60;99.90;5.40;100578.00;;;;4877881;28;89858;-65
2024/03/13 04:51:31;;;;;;;11.93;6.20;;;5.60;99.90;5.30;100574.00;;;;4879381;28;87891;-65
2024/03/13 04:53:57;;;;;;;8.00;4.73;;;6.30;99.90;5.30;100588.00;;;;4880718;28;89372;-65
2024/03/13 04:56:23;;;;;;;7.50;6.17;;;5.60;99.90;5.30;100583.00;;;;4877150;28;88109;-66
2024/03/13 04:58:48;;;;;;;14.13;7.87;;;5.50;99.90;5.30;100581.00;;;;4877102;28;88343;-65
2024/03/13 05:01:18;;;;;;;8.87;6.93;;;5.50;99.90;5.20;100577.00;;;;4881248;28;87768;-66
2024/03/13 05:03:44;;;;;;;12.53;7.20;;;5.70;99.90;5.20;100588.00;;;;4883928;28;87185;-65
2024/03/13 05:06:10;;;;;;;7.90;6.33;;;5.40;99.90;5.10;100591.00;;;;4879698;28;89091;-66
2024/03/13 05:08:36;;;;;;;10.73;6.80;;;5.30;99.90;5.10;100588.00;;;;4893662;28;115949;-65
2024/03/13 05:11:01;;;;;;;9.30;6.37;;;5.30;99.90;5.10;100590.00;;;;4878907;28;95320;-65
2024/03/13 05:13:27;;;;;;;12.07;6.90;;;5.30;99.90;5.00;100593.00;;;;4876912;28;107874;-64
2024/03/13 05:15:53;;;;;;;16.33;8.60;;;5.30;99.90;5.00;100597.00;;;;4882025;28;88826;-65
2024/03/13 05:18:19;;;;;;;8.73;6.37;;;5.20;99.90;5.00;100590.00;;;;4881699;28;117961;-66
2024/03/13 05:20:45;;;;;;;9.60;6.63;;;5.20;99.90;4.90;100590.00;;;;4878972;28;88944;-64
2024/03/13 05:23:11;;;;;;;11.13;7.00;;;5.20;99.90;4.90;100598.00;;;;4880433;28;87801;-64
2024/03/13 05:25:37;;;;;;;9.93;6.47;;;5.10;99.90;4.80;100599.00;;;;4879084;28;116569;-64
2024/03/13 05:28:03;;;;;;;11.13;7.20;;;5.00;99.90;4.80;100602.00;;;;4878165;28;101286;-64
2024/03/13 05:30:30;;;;;;;13.57;8.53;;;5.00;99.90;4.70;100607.00;;;;4882741;28;87838;-64
2024/03/13 05:32:56;;;;;;;14.33;8.47;;;5.00;99.90;4.60;100603.00;;;;4883141;28;88104;-64
2024/03/13 05:35:23;;;;;;;11.23;7.57;;;4.80;99.90;4.60;100600.00;;;;4856413;28;90636;-64
2024/03/13 05:37:49;;;;;;;9.00;7.23;;;4.90;99.90;4.50;100601.00;;;;4855546;28;88783;-64
2024/03/13 05:40:19;;;;;;;12.27;7.47;;;4.70;99.90;4.40;100604.00;;;;4861603;28;89189;-65
2024/03/13 05:42:46;;;;;;;8.63;6.20;;;4.70;99.90;4.40;100608.00;;;;4853686;28;87913;-65
2024/03/13 05:45:13;;;;;;;10.73;7.77;;;4.60;99.90;4.30;100606.00;;;;4853558;28;88651;-65
2024/03/13 05:47:40;;;;;;;10.27;6.97;;;4.70;99.90;4.30;100607.00;;;;4853014;28;88817;-64
2024/03/13 05:50:07;;;;;;;13.27;7.07;;;4.50;99.90;4.30;100610.00;;;;4853027;28;88064;-64
2024/03/13 05:52:33;;;;;;;13.87;7.20;;;4.50;99.90;4.20;100610.00;;;;4858851;28;87063;-64
2024/03/13 05:55:01;;;;;;;14.40;8.87;;;4.40;99.90;4.20;100615.00;;;;4855920;28;89176;-65
2024/03/13 05:57:27;;;;;;;8.37;6.67;;;5.10;99.90;4.20;100605.00;;;;4856246;28;90452;-64
2024/03/13 05:59:53;;;;;;;12.43;6.50;;;4.40;99.90;4.20;100621.00;;;;4854353;28;88919;-65
2024/03/13 06:02:19;;;;;;;15.07;8.03;;;5.20;99.90;4.20;100612.00;;;;4864380;28;97304;-64
2024/03/13 06:04:48;;;;;;;11.07;7.70;;;5.00;99.90;4.20;100614.00;;;;4865849;28;88004;-64
2024/03/13 06:07:13;;;;;;;13.10;7.00;;;4.40;99.90;4.20;100612.00;;;;4859859;28;88521;-64
2024/03/13 06:09:39;;;;;;;23.60;7.90;;;4.40;99.90;4.20;100614.00;;;;4858415;28;89303;-64
2024/03/13 06:12:06;;;;;;;26.13;8.20;;;4.80;99.90;4.20;100607.00;;;;4855973;28;107475;-64
2024/03/13 06:14:32;;;;;;;11.47;6.93;;;4.50;99.90;4.30;100598.00;;;;4860381;28;88870;-64
2024/03/13 06:16:58;;;;;;;12.43;7.47;;;4.50;99.90;4.40;100607.00;;;;4862037;28;89000;-65
2024/03/13 06:19:25;;;;;;;7.87;6.30;;;4.50;99.90;4.50;100611.00;;;;4859277;28;109445;-64
2024/03/13 06:21:51;;;;;;;10.50;8.03;;;5.20;99.90;4.60;100602.00;;;;4859451;28;87774;-64
2024/03/13 06:24:22;;;;;;;12.90;8.50;;;5.20;99.90;4.80;100606.00;;;;4857482;28;88956;-64
2024/03/13 06:26:49;;;;;;;12.57;7.30;;;5.70;99.90;5.00;100617.00;;;;4859488;28;89989;-64
2024/03/13 06:32:00;;;;;;;11.17;8.63;;;5.20;99.90;5.40;100622.00;;;;4856669;28;87874;-64
2024/03/13 06:34:26;;;;;;;10.70;7.23;;;5.50;99.90;5.60;100620.00;;;;4865530;28;89231;-65
2024/03/13 06:36:52;;;;;;;13.23;8.57;;;5.70;99.90;5.70;100615.00;;;;4879741;28;110208;-64
2024/03/13 06:39:21;;;;;;;13.10;8.93;;;6.40;99.90;6.00;100630.00;;;;4876506;28;110573;-64
2024/03/13 06:41:47;;;;;;;11.13;8.50;;;6.00;99.90;6.10;100619.00;;;;4882526;28;86993;-64
2024/03/13 06:44:13;;;;;;;13.20;7.90;;;7.00;99.90;6.40;100627.00;;;;4876373;28;88099;-64
2024/03/13 06:46:39;;;;;;;11.70;7.17;;;6.40;99.90;6.60;100630.00;;;;4881441;28;116177;-65
2024/03/13 06:49:04;;;;;;;18.37;9.63;;;6.70;99.90;6.80;100633.00;;;;4875334;28;110328;-64
2024/03/13 06:51:30;;;;;;;11.63;7.33;;;7.60;99.90;7.10;100625.00;;;;4880236;28;108188;-65
2024/03/13 06:53:56;;;;;;;11.10;8.53;;;7.10;99.90;7.40;100636.00;;;;4876711;28;88701;-64
2024/03/13 06:56:22;;;;;;;13.07;7.73;;;7.40;99.90;7.60;100639.00;;;;4880809;28;117575;-64
2024/03/13 06:58:47;;;;;;;9.07;7.80;;;7.60;99.90;7.80;100644.00;;;;4879555;28;87768;-64
2024/03/13 07:01:14;;;;;;;13.57;8.20;;;8.10;99.90;8.00;100643.00;;;;4877117;28;109106;-64
2024/03/13 07:03:43;;;;;;;12.87;8.63;;;8.00;99.90;8.20;100645.00;;;;4880757;28;87846;-66
2024/03/13 07:06:10;;;;;;;11.97;8.50;;;8.20;99.90;8.40;100638.00;;;;4880976;28;87430;-65
2024/03/13 07:08:36;;;;;;;13.27;7.40;;;8.40;99.90;8.70;100645.00;;;;4877832;28;102769;-64
2024/03/13 07:11:05;;;;;;;14.73;7.23;;;8.70;99.90;8.90;100649.00;;;;4878959;28;106815;-63
2024/03/13 07:13:33;;;;;;;10.60;6.83;;;8.90;99.90;9.10;100646.00;;;;4881958;28;89623;-63
2024/03/13 07:15:59;;;;;;;13.23;7.83;;;9.10;99.90;9.30;100644.00;;;;4881453;28;89482;-64
2024/03/13 07:18:29;;;;;;;13.27;7.33;;;9.30;99.90;9.50;100646.00;;;;4881372;28;89454;-63
2024/03/13 07:20:55;;;;;;;7.03;6.30;;;9.50;99.90;9.70;100647.00;;;;4879167;28;87881;-64
2024/03/13 07:23:21;;;;;;;13.43;6.97;;;9.70;99.90;9.90;100655.00;;;;4874859;28;88968;-64
2024/03/13 07:25:49;;;;;;;9.67;5.57;;;9.90;99.90;10.10;100652.00;;;;4881890;28;88642;-64
2024/03/13 07:28:19;;;;;;;8.70;6.33;;;10.10;99.90;10.30;100650.00;;;;4884482;28;88292;-64
2024/03/13 07:30:44;;;;;;;10.00;6.30;;;10.40;99.90;10.60;100657.00;;;;4886364;28;87586;-63
2024/03/13 07:33:12;;;;;;;13.80;6.53;;;10.50;99.90;10.80;100654.00;;;;4878709;28;117310;-64
2024/03/13 07:35:46;;;;;;;8.90;6.17;;;10.80;99.90;11.10;100662.00;;;;4880581;28;88810;-65
2024/03/13 07:38:11;;;;;;;8.20;5.73;;;11.00;99.90;11.40;100664.00;;;;4881367;28;89091;-65
2024/03/13 07:40:39;;;;;;;17.27;7.47;;;11.30;99.90;11.60;100663.00;;;;4879194;28;92189;-65
2024/03/13 07:43:08;;;;;;;7.90;5.40;;;11.60;99.90;11.80;100662.00;;;;4880837;28;88651;-66
2024/03/13 07:45:40;;;;;;;10.17;5.50;;;11.80;99.90;12.00;100665.00;;;;4883202;28;87845;-64
2024/03/13 07:48:09;;;;;;;10.87;5.87;;;12.00;99.90;12.10;100670.00;;;;4879472;28;111129;-65
2024/03/13 07:50:39;;;;;;;13.53;5.30;;;12.20;99.90;12.20;100679.00;;;;4878298;28;87855;-65
2024/03/13 07:53:05;;;;;;;8.83;6.03;;;12.30;99.90;12.30;100676.00;;;;4880898;28;88839;-64
2024/03/13 07:55:31;;;;;;;9.83;6.30;;;12.40;99.90;12.40;100682.00;;;;4882321;28;106641;-65
2024/03/13 07:57:58;;;;;;;11.20;6.77;;;12.50;99.90;12.50;100680.00;;;;4881989;28;88104;-65
2024/03/13 08:00:24;;;;;;;7.33;5.20;;;12.60;99.90;12.70;100681.00;;;;4879976;28;88003;-65
2024/03/13 08:02:51;;;;;;;8.20;5.27;;;12.70;99.90;12.80;100683.00;;;;4878529;28;89937;-65
2024/03/13 08:05:17;;;;;;;8.47;6.03;;;12.80;99.90;12.90;100676.00;;;;4882774;28;89954;-65
2024/03/13 08:07:46;;;;;;;12.10;6.33;;;13.30;99.90;13.10;100679.00;;;;4878640;28;111212;-65
2024/03/13 08:10:15;;;;;;;9.57;6.17;;;13.10;99.90;13.30;100677.00;;;;4882233;28;90388;-65
2024/03/13 08:12:41;;;;;;;12.03;5.87;;;13.40;99.90;13.60;100682.00;;;;4883430;28;91704;-65
2024/03/13 08:15:08;;;;;;;8.97;5.90;;;13.60;99.90;13.70;100692.00;;;;4877728;28;88524;-66
2024/03/13 08:17:35;;;;;;;9.05;5.68;;;13.80;99.90;13.90;100687.00;;;;4875824;28;87650;-64
2024/03/13 08:20:05;;;;;;;8.05;5.50;;;13.90;99.90;14.00;100671.00;;;;4882428;28;93468;-64
2024/03/13 08:22:31;;;;;;;13.15;5.97;;;14.00;99.90;14.10;100682.00;;;;4875291;28;108777;-63
2024/03/13 08:24:58;;;;;;;11.27;6.32;;;14.20;99.90;14.20;100683.00;;;;4881110;28;88505;-63
2024/03/13 08:27:24;;;;;;;11.15;5.05;;;14.30;99.90;14.30;100689.00;;;;4880294;28;88879;-66
2024/03/13 08:29:49;;;;;;;15.07;7.03;;;14.40;99.90;14.30;100692.00;;;;4882754;28;87815;-63
2024/03/13 08:32:15;;;;;;;6.55;5.25;;;14.50;98.50;14.40;100694.00;;;;4879536;28;108590;-63
2024/03/13 08:34:43;;;;;;;13.55;6.10;;;14.50;98.50;14.50;100698.00;;;;4876291;28;115459;-63
2024/03/13 08:37:10;;;;;;;9.70;5.50;;;14.60;98.20;14.60;100700.00;;;;4876750;28;88313;-63
2024/03/13 08:39:36;;;;;;;7.78;5.18;;;14.60;97.40;14.70;100706.00;;;;4877742;28;87826;-63
2024/03/13 08:42:02;;;;;;;8.57;5.80;;;14.80;97.00;14.80;100694.00;;;;4879882;28;88231;-62
2024/03/13 08:44:31;;;;;;;12.30;6.35;;;14.80;96.40;14.80;100707.00;;;;4881465;28;108491;-64
2024/03/13 08:46:57;;;;;;;14.73;6.75;;;14.90;95.40;14.80;100699.00;;;;4876291;28;110683;-64
2024/03/13 08:49:24;;;;;;;12.30;5.38;;;14.90;95.20;14.80;100706.00;;;;4878905;28;88075;-64
2024/03/13 08:51:51;;;;;;;9.43;5.35;;;14.90;95.20;14.90;100704.00;;;;4881626;28;89205;-64
2024/03/13 08:54:17;;;;;;;10.05;5.97;;;15.00;95.20;15.10;100704.00;;;;4879331;28;89878;-64
2024/03/13 08:56:43;;;;;;;11.35;6.00;;;15.10;95.20;15.20;100706.00;;;;4883060;28;88171;-65
2024/03/13 08:59:08;;;;;;;9.38;5.65;;;15.30;94.90;15.40;100713.00;;;;4886328;28;87821;-63
2024/03/13 09:01:44;;;;;;;11.02;5.97;;;15.40;94.70;15.50;100712.00;;;;4872672;28;89007;-63
2024/03/13 09:04:10;;;;;;;8.23;5.50;;;15.50;94.10;15.70;100704.00;;;;4876478;28;87759;-63
2024/03/13 09:06:39;;;;;;;8.93;5.75;;;15.70;94.20;15.90;100710.00;;;;4881157;28;110555;-63
2024/03/13 09:09:05;;;;;;;9.02;5.95;;;15.90;94.00;16.00;100709.00;;;;4880720;28;87057;-64
2024/03/13 09:11:32;;;;;;;8.52;5.85;;;16.00;93.50;16.10;100708.00;;;;4880906;28;88081;-63
2024/03/13 09:14:03;;;;;;;9.70;5.97;;;16.20;93.10;16.20;100710.00;;;;4880373;28;111736;-63
2024/03/13 09:16:32;;;;;;;13.02;6.80;;;16.30;92.10;16.30;100713.00;;;;4879796;28;88857;-63
2024/03/13 09:18:58;;;;;;;11.52;6.10;;;16.30;91.40;16.20;100716.00;;;;4891881;28;87871;-65
2024/03/13 09:21:25;;;;;;;11.48;7.18;;;16.30;90.20;16.10;100723.00;;;;4878871;28;88003;-64
2024/03/13 09:23:52;;;;;;;12.52;6.53;;;16.30;90.60;16.20;100722.00;;;;4876336;28;87805;-64
2024/03/13 09:26:18;;;;;;;9.70;5.85;;;16.30;90.70;16.50;100727.00;;;;4877378;28;87995;-64
2024/03/13 09:28:47;;;;;;;9.85;5.65;;;16.40;91.00;16.80;100720.00;;;;4874586;28;89127;-63
2024/03/13 09:31:13;;;;;;;9.07;5.10;;;16.70;90.30;17.00;100732.00;;;;4877141;28;117603;-63
2024/03/13 09:33:40;;;;;;;12.23;6.68;;;16.90;90.00;17.10;100719.00;;;;4879083;28;95675;-63
2024/03/13 09:36:12;;;;;;;8.98;4.80;;;17.10;88.40;17.10;100730.00;;;;4878226;28;87765;-64
2024/03/13 09:38:40;;;;;;;10.95;5.95;;;17.20;86.10;17.20;100720.00;;;;4879618;28;90964;-64
2024/03/13 09:41:06;;;;;;;7.07;5.00;;;17.20;82.50;16.90;100719.00;;;;4878156;28;108592;-66
2024/03/13 09:43:32;;;;;;;12.65;6.10;;;17.00;81.00;16.80;100725.00;;;;4876783;28;88838;-64
2024/03/13 09:45:59;;;;;;;9.52;5.53;;;16.90;79.90;16.80;100724.00;;;;4881305;28;88026;-64
2024/03/13 09:48:25;;;;;;;10.00;5.15;;;16.40;80.50;16.90;100730.00;;;;4874843;28;87987;-63
2024/03/13 09:50:53;;;;;;;9.68;5.95;;;16.90;78.80;16.90;100730.00;;;;4874484;28;118314;-64
2024/03/13 09:53:21;;;;;;;8.65;5.25;;;16.90;80.10;17.20;100730.00;;;;4871416;28;88227;-63
2024/03/13 09:55:48;;;;;;;13.50;6.00;;;17.10;81.20;17.50;100732.00;;;;4876803;28;87840;-63
2024/03/13 09:58:15;;;;;;;11.88;5.60;;;17.30;79.40;17.80;100731.00;;;;4876996;28;108927;-63
2024/03/13 10:00:42;;;;;;;13.73;5.60;;;17.60;78.50;18.00;100739.00;;;;4876509;28;87911;-63
2024/03/13 10:03:23;;;;;;;11.80;6.68;;;17.80;77.00;18.00;100741.00;;;;4877803;28;88069;-65
2024/03/13 10:06:10;;;;;;;9.25;5.47;;;17.90;74.90;17.90;100729.00;;;;4878213;28;90254;-65
2024/03/13 10:08:41;;;;;;;7.82;5.60;;;17.90;74.20;18.00;100735.00;;;;4876007;28;88404;-63
2024/03/13 10:11:09;;;;;;;7.93;5.78;;;17.90;75.60;18.20;100731.00;;;;4880048;28;88552;-63
2024/03/13 10:13:38;;;;;;;13.18;6.10;;;18.00;75.90;18.20;100726.00;;;;4877845;28;118092;-64
2024/03/13 10:16:06;;;;;;;9.57;4.80;;;18.10;75.00;18.20;100726.00;;;;4874307;28;87706;-64
2024/03/13 10:18:36;;;;;;;8.98;5.43;;;18.20;74.80;18.30;100724.00;;;;4877597;28;87930;-64
2024/03/13 10:21:09;;;;;;;8.65;5.03;;;18.20;72.10;18.40;100722.00;;;;4875826;28;88276;-63
2024/03/13 10:23:42;;;;;;;9.00;4.93;;;18.20;73.00;18.50;100724.00;;;;4875896;28;88006;-63
2024/03/13 10:26:09;;;;;;;16.25;5.35;;;18.40;73.20;18.90;100725.00;;;;4876092;28;93251;-63
2024/03/13 10:28:35;;;;;;;5.95;4.22;;;18.60;74.00;19.50;100716.00;;;;4873647;28;109038;-64
2024/03/13 10:31:04;;;;;;;9.48;6.32;;;19.10;74.20;20.00;100708.00;;;;4884399;28;118831;-64
2024/03/13 10:33:31;;;;;;;7.05;4.15;;;19.50;72.80;20.50;100710.00;;;;4884627;28;89547;-64
2024/03/13 10:35:57;;;;;;;7.07;4.43;;;20.00;71.30;20.80;100709.00;;;;4885074;28;103575;-65
2024/03/13 10:38:23;;;;;;;8.02;5.13;;;20.40;68.70;20.90;100705.00;;;;4878861;28;87673;-64
2024/03/13 10:40:49;;;;;;;6.40;4.65;;;20.60;63.90;20.70;100703.00;;;;4881154;28;88205;-64
2024/03/13 10:43:15;;;;;;;6.03;4.40;;;20.50;60.00;20.40;100699.00;;;;4875211;28;110056;-64
2024/03/13 10:45:47;;;;;;;10.07;5.38;;;20.30;58.60;20.20;100696.00;;;;4879835;28;89154;-64
2024/03/13 10:48:13;;;;;;;7.30;5.35;;;20.10;59.30;20.00;100686.00;;;;4879386;28;87201;-64
2024/03/13 10:50:40;;;;;;;9.98;5.07;;;19.90;58.80;19.70;100688.00;;;;4879076;28;118018;-65
2024/03/13 10:53:07;;;;;;;6.35;4.70;;;19.70;57.60;19.40;100684.00;;;;4893523;28;88017;-63
2024/03/13 10:55:33;;;;;;;8.93;4.93;;;19.30;58.40;19.30;100689.00;;;;4881749;28;88958;-63
2024/03/13 10:57:58;;;;;;;7.30;4.43;;;19.30;58.90;19.30;100684.00;;;;4882985;28;88564;-63
2024/03/13 11:00:28;;;;;;;7.72;4.82;;;19.20;59.00;19.50;100684.00;;;;4877288;28;88649;-63
2024/03/13 11:02:54;;;;;;;7.68;4.30;;;19.30;59.40;19.60;100669.00;;;;4882849;28;88240;-63
2024/03/13 11:05:21;;;;;;;7.72;5.65;;;19.40;59.30;19.80;100680.00;;;;4878283;28;97815;-63
2024/03/13 11:07:47;;;;;;;9.73;5.28;;;19.50;59.50;20.00;100682.00;;;;4883250;28;88505;-63
2024/03/13 11:10:32;;;;;;;9.07;5.28;;;19.70;59.40;20.20;100687.00;;;;4882013;28;88003;-63
2024/03/13 11:13:01;;;;;;;7.05;5.18;;;19.90;59.20;20.50;100683.00;;;;4881852;28;87835;-64